Time,TemperatureF,DewpointF,PressureIn,WindDirection,WindDirectionDegrees,WindSpeedMPH,WindSpeedGustMPH,Humidity,HourlyPrecipIn,Conditions,Clouds,dailyrainin,SoftwareType,DateUTC
2013-06-01 00:01:00,63.0,48.0,29.90,NE,39,0.0,2.0,58,0.00,,,0.00,meteohub,2013-06-01 07:01:00,
2013-06-01 00:06:00,63.0,48.0,29.90,NE,39,0.0,2.0,58,0.00,,,0.00,meteohub,2013-06-01 07:06:00,
2013-06-01 00:11:00,62.8,47.8,29.90,NE,39,1.0,1.0,58,0.00,,,0.00,meteohub,2013-06-01 07:11:00,
2013-06-01 00:16:00,62.4,47.8,29.90,NE,39,2.0,3.0,59,0.00,,,0.00,meteohub,2013-06-01 07:16:00,
2013-06-01 00:21:00,62.4,47.8,29.90,NE,40,3.0,3.0,59,0.00,,,0.00,meteohub,2013-06-01 07:21:00,
2013-06-01 00:26:00,62.2,47.7,29.90,NE,40,1.0,3.0,59,0.00,,,0.00,meteohub,2013-06-01 07:26:00,
2013-06-01 00:31:00,62.2,47.7,29.90,NE,40,0.0,3.0,59,0.00,,,0.00,meteohub,2013-06-01 07:31:00,
2013-06-01 00:36:00,62.2,48.2,29.90,NE,43,0.0,4.0,60,0.00,,,0.00,meteohub,2013-06-01 07:36:00,
2013-06-01 00:41:00,61.9,47.8,29.90,NE,43,2.0,4.0,60,0.00,,,0.00,meteohub,2013-06-01 07:41:00,
2013-06-01 00:46:00,61.7,48.2,29.90,NE,43,1.0,4.0,61,0.00,,,0.00,meteohub,2013-06-01 07:46:00,
2013-06-01 00:51:00,61.5,48.0,29.90,NE,43,1.0,3.0,61,0.00,,,0.00,meteohub,2013-06-01 07:51:00,
2013-06-01 00:56:00,61.3,47.8,29.90,NE,43,1.0,3.0,61,0.00,,,0.00,meteohub,2013-06-01 07:56:00,
2013-06-01 01:01:00,61.3,48.2,29.90,NE,43,0.0,3.0,62,0.00,,,0.00,meteohub,2013-06-01 08:01:00,
2013-06-01 01:06:00,61.2,48.0,29.90,NE,43,1.0,2.0,62,0.00,,,0.00,meteohub,2013-06-01 08:06:00,
2013-06-01 01:11:00,60.8,47.7,29.89,NE,43,2.0,3.0,62,0.00,,,0.00,meteohub,2013-06-01 08:11:00,
2013-06-01 01:16:00,60.8,47.7,29.89,NE,43,1.0,3.0,62,0.00,,,0.00,meteohub,2013-06-01 08:16:00,
2013-06-01 01:21:00,60.6,47.5,29.89,NE,43,2.0,3.0,62,0.00,,,0.00,meteohub,2013-06-01 08:21:00,
2013-06-01 01:26:00,60.6,47.5,29.90,NE,43,2.0,3.0,62,0.00,,,0.00,meteohub,2013-06-01 08:26:00,
2013-06-01 01:31:00,61.2,48.0,29.89,NE,44,1.0,4.0,62,0.00,,,0.00,meteohub,2013-06-01 08:31:00,
2013-06-01 01:36:00,61.2,47.7,29.89,NE,44,1.0,4.0,61,0.00,,,0.00,meteohub,2013-06-01 08:36:00,
2013-06-01 01:41:00,61.0,47.5,29.89,NE,44,1.0,4.0,61,0.00,,,0.00,meteohub,2013-06-01 08:41:00,
2013-06-01 01:46:00,60.8,47.7,29.89,NE,45,2.0,3.0,62,0.00,,,0.00,meteohub,2013-06-01 08:46:00,
2013-06-01 01:51:00,60.6,47.5,29.89,NE,52,3.0,4.0,62,0.00,,,0.00,meteohub,2013-06-01 08:51:00,
2013-06-01 01:56:00,60.6,47.5,29.89,NE,44,3.0,5.0,62,0.00,,,0.00,meteohub,2013-06-01 08:56:00,
2013-06-01 02:01:00,60.6,47.5,29.89,NE,45,5.0,5.0,62,0.00,,,0.00,meteohub,2013-06-01 09:01:00,
2013-06-01 02:06:00,61.0,47.5,29.89,NE,43,1.0,5.0,61,0.00,,,0.00,meteohub,2013-06-01 09:06:00,
2013-06-01 02:11:00,61.5,47.5,29.89,NE,43,3.0,5.0,60,0.00,,,0.00,meteohub,2013-06-01 09:11:00,
2013-06-01 02:16:00,62.4,47.8,29.89,NE,44,3.0,5.0,59,0.00,,,0.00,meteohub,2013-06-01 09:16:00,
2013-06-01 02:21:00,62.6,47.7,29.89,NE,53,3.0,5.0,58,0.00,,,0.00,meteohub,2013-06-01 09:21:00,
2013-06-01 02:26:00,63.1,47.7,29.89,NE,41,2.0,7.0,57,0.00,,,0.00,meteohub,2013-06-01 09:26:00,
2013-06-01 02:31:00,63.7,47.7,29.89,NE,38,2.0,7.0,56,0.00,,,0.00,meteohub,2013-06-01 09:31:00,
2013-06-01 02:36:00,64.4,47.5,29.89,NE,52,2.0,7.0,54,0.00,,,0.00,meteohub,2013-06-01 09:36:00,
2013-06-01 02:41:00,65.8,47.7,29.88,NE,49,5.0,5.0,52,0.00,,,0.00,meteohub,2013-06-01 09:41:00,
2013-06-01 02:46:00,66.6,47.8,29.88,NE,51,3.0,5.0,51,0.00,,,0.00,meteohub,2013-06-01 09:46:00,
2013-06-01 02:51:00,66.6,47.8,29.88,NE,52,4.0,5.0,51,0.00,,,0.00,meteohub,2013-06-01 09:51:00,
2013-06-01 02:56:00,66.0,47.3,29.88,NE,52,2.0,5.0,51,0.00,,,0.00,meteohub,2013-06-01 09:56:00,
2013-06-01 03:01:00,65.5,46.9,29.88,NNE,22,4.0,5.0,51,0.00,,,0.00,meteohub,2013-06-01 10:01:00,
2013-06-01 03:06:00,64.9,47.5,29.88,NNE,31,4.0,5.0,53,0.00,,,0.00,meteohub,2013-06-01 10:06:00,
2013-06-01 03:11:00,64.0,47.5,29.88,NNE,26,3.0,5.0,55,0.00,,,0.00,meteohub,2013-06-01 10:11:00,
2013-06-01 03:16:00,63.0,46.9,29.88,NNE,27,2.0,5.0,56,0.00,,,0.00,meteohub,2013-06-01 10:16:00,
2013-06-01 03:22:00,62.4,46.9,29.88,NNE,30,1.0,5.0,57,0.00,,,0.00,meteohub,2013-06-01 10:22:00,
2013-06-01 03:27:00,62.1,47.1,29.87,NNE,31,2.0,4.0,58,0.00,,,0.00,meteohub,2013-06-01 10:27:00,
2013-06-01 03:32:00,62.1,47.1,29.87,NE,36,1.0,4.0,58,0.00,,,0.00,meteohub,2013-06-01 10:32:00,
2013-06-01 03:37:00,62.2,45.9,29.87,NE,49,1.0,4.0,55,0.00,,,0.00,meteohub,2013-06-01 10:37:00,
2013-06-01 03:42:00,63.0,46.6,29.87,NNE,31,3.0,5.0,55,0.00,,,0.00,meteohub,2013-06-01 10:42:00,
2013-06-01 03:47:00,63.3,45.9,29.87,NNE,12,4.0,5.0,53,0.00,,,0.00,meteohub,2013-06-01 10:47:00,
2013-06-01 03:52:00,64.4,46.4,29.87,ENE,64,5.0,6.0,52,0.00,,,0.00,meteohub,2013-06-01 10:52:00,
2013-06-01 03:57:00,65.8,46.2,29.86,ENE,61,3.0,6.0,49,0.00,,,0.00,meteohub,2013-06-01 10:57:00,
2013-06-01 04:02:00,66.6,45.1,29.86,NNE,28,3.0,7.0,46,0.00,,,0.00,meteohub,2013-06-01 11:02:00,
2013-06-01 04:07:00,67.3,45.1,29.86,NNE,22,5.0,7.0,45,0.00,,,0.00,meteohub,2013-06-01 11:07:00,
2013-06-01 04:12:00,69.1,45.0,29.86,NE,36,3.0,7.0,42,0.00,,,0.00,meteohub,2013-06-01 11:12:00,
2013-06-01 04:17:00,70.5,45.7,29.86,ENE,76,3.0,7.0,41,0.00,,,0.00,meteohub,2013-06-01 11:17:00,
2013-06-01 04:22:00,71.2,44.2,29.86,NE,56,6.0,7.0,38,0.00,,,0.00,meteohub,2013-06-01 11:22:00,
2013-06-01 04:27:00,72.1,43.7,29.86,NNE,25,7.0,9.0,36,0.00,,,0.00,meteohub,2013-06-01 11:27:00,
2013-06-01 04:32:00,73.0,43.0,29.86,NE,44,4.0,10.0,34,0.00,,,0.00,meteohub,2013-06-01 11:32:00,
2013-06-01 04:37:00,73.4,43.3,29.86,ENE,57,8.0,10.0,34,0.00,,,0.00,meteohub,2013-06-01 11:37:00,
2013-06-01 04:42:00,73.8,42.8,29.86,NNE,32,7.0,10.0,33,0.00,,,0.00,meteohub,2013-06-01 11:42:00,
2013-06-01 04:47:00,73.9,43.0,29.86,ENE,59,5.0,10.0,33,0.00,,,0.00,meteohub,2013-06-01 11:47:00,
2013-06-01 04:52:00,73.9,43.0,29.86,NE,53,5.0,10.0,33,0.00,,,0.00,meteohub,2013-06-01 11:52:00,
2013-06-01 04:57:00,73.8,43.7,29.86,NNE,15,3.0,11.0,34,0.00,,,0.00,meteohub,2013-06-01 11:57:00,
2013-06-01 05:02:00,73.6,43.5,29.86,NE,45,6.0,11.0,34,0.00,,,0.00,meteohub,2013-06-01 12:02:00,
2013-06-01 05:07:00,73.4,43.3,29.86,NE,55,7.0,11.0,34,0.00,,,0.00,meteohub,2013-06-01 12:07:00,
2013-06-01 05:12:00,73.4,43.3,29.86,NE,51,7.0,9.0,34,0.00,,,0.00,meteohub,2013-06-01 12:12:00,
2013-06-01 05:17:00,73.2,42.4,29.86,NE,47,5.0,9.0,33,0.00,,,0.00,meteohub,2013-06-01 12:17:00,
2013-06-01 05:22:00,73.2,42.4,29.86,NE,41,8.0,9.0,33,0.00,,,0.00,meteohub,2013-06-01 12:22:00,
2013-06-01 05:27:00,73.2,42.4,29.86,ENE,62,5.0,9.0,33,0.00,,,0.00,meteohub,2013-06-01 12:27:00,
2013-06-01 05:32:00,73.2,42.4,29.86,NE,38,4.0,9.0,33,0.00,,,0.00,meteohub,2013-06-01 12:32:00,
2013-06-01 05:37:00,73.2,42.4,29.86,NE,46,3.0,9.0,33,0.00,,,0.00,meteohub,2013-06-01 12:37:00,
2013-06-01 05:42:00,73.2,41.5,29.86,NE,34,5.0,9.0,32,0.00,,,0.00,meteohub,2013-06-01 12:42:00,
2013-06-01 05:47:00,73.2,40.8,29.86,NE,54,2.0,9.0,31,0.00,,,0.00,meteohub,2013-06-01 12:47:00,
2013-06-01 05:52:00,73.2,40.8,29.86,NNE,32,5.0,8.0,31,0.00,,,0.00,meteohub,2013-06-01 12:52:00,
2013-06-01 05:57:00,73.0,40.6,29.86,ENE,61,4.0,8.0,31,0.00,,,0.00,meteohub,2013-06-01 12:57:00,
2013-06-01 06:02:00,73.0,40.6,29.86,NE,55,5.0,7.0,31,0.00,,,0.00,meteohub,2013-06-01 13:02:00,
2013-06-01 06:07:00,73.0,40.6,29.86,NE,39,3.0,11.0,31,0.00,,,0.00,meteohub,2013-06-01 13:07:00,
2013-06-01 06:12:00,73.2,40.8,29.86,ENE,57,12.0,12.0,31,0.00,,,0.00,meteohub,2013-06-01 13:12:00,
2013-06-01 06:17:00,73.6,40.3,29.86,ENE,59,9.0,12.0,30,0.00,,,0.00,meteohub,2013-06-01 13:17:00,
2013-06-01 06:22:00,73.6,40.3,29.86,NE,53,6.0,12.0,30,0.00,,,0.00,meteohub,2013-06-01 13:22:00,
2013-06-01 06:27:00,73.9,39.7,29.86,NE,44,6.0,12.0,29,0.00,,,0.00,meteohub,2013-06-01 13:27:00,
2013-06-01 06:32:00,73.9,39.7,29.86,NNE,20,6.0,12.0,29,0.00,,,0.00,meteohub,2013-06-01 13:32:00,
2013-06-01 06:37:00,74.3,39.0,29.86,NE,49,7.0,12.0,28,0.00,,,0.00,meteohub,2013-06-01 13:37:00,
2013-06-01 06:42:00,74.5,40.1,29.86,NNE,20,8.0,13.0,29,0.00,,,0.00,meteohub,2013-06-01 13:42:00,
2013-06-01 06:47:00,74.7,40.3,29.86,NE,36,7.0,13.0,29,0.00,,,0.00,meteohub,2013-06-01 13:47:00,
2013-06-01 06:52:00,74.7,40.3,29.86,ENE,59,11.0,12.0,29,0.00,,,0.00,meteohub,2013-06-01 13:52:00,
2013-06-01 06:57:00,74.7,40.3,29.86,ENE,63,8.0,13.0,29,0.00,,,0.00,meteohub,2013-06-01 13:57:00,
2013-06-01 07:02:00,74.7,40.3,29.86,NE,40,8.0,13.0,29,0.00,,,0.00,meteohub,2013-06-01 14:02:00,
2013-06-01 07:07:00,74.8,40.5,29.86,North,10,6.0,13.0,29,0.00,,,0.00,meteohub,2013-06-01 14:07:00,
2013-06-01 07:12:00,75.0,40.6,29.86,NE,48,6.0,13.0,29,0.00,,,0.00,meteohub,2013-06-01 14:12:00,
2013-06-01 07:17:00,75.0,40.6,29.86,North,355,6.0,12.0,29,0.00,,,0.00,meteohub,2013-06-01 14:17:00,
2013-06-01 07:22:00,75.0,39.7,29.86,NE,34,6.0,13.0,28,0.00,,,0.00,meteohub,2013-06-01 14:22:00,
2013-06-01 07:27:00,75.4,41.0,29.86,NE,46,5.0,13.0,29,0.00,,,0.00,meteohub,2013-06-01 14:27:00,
2013-06-01 07:32:00,75.4,40.1,29.86,NE,53,6.0,13.0,28,0.00,,,0.00,meteohub,2013-06-01 14:32:00,
2013-06-01 07:37:00,75.6,41.0,29.86,ENE,66,11.0,13.0,29,0.00,,,0.00,meteohub,2013-06-01 14:37:00,
2013-06-01 07:42:00,75.6,40.1,29.86,ENE,60,3.0,11.0,28,0.00,,,0.00,meteohub,2013-06-01 14:42:00,
2013-06-01 07:47:00,75.7,40.3,29.87,NE,40,9.0,14.0,28,0.00,,,0.00,meteohub,2013-06-01 14:47:00,
2013-06-01 07:51:00,75.9,40.5,29.87,NE,49,5.0,14.0,28,0.00,,,0.00,meteohub,2013-06-01 14:51:00,
2013-06-01 07:57:00,75.9,40.5,29.87,North,10,7.0,14.0,28,0.00,,,0.00,meteohub,2013-06-01 14:57:00,
2013-06-01 08:02:00,76.1,40.6,29.87,NE,36,10.0,14.0,28,0.00,,,0.00,meteohub,2013-06-01 15:02:00,
2013-06-01 08:07:00,76.3,40.8,29.87,NNE,31,6.0,16.0,28,0.00,,,0.00,meteohub,2013-06-01 15:07:00,
2013-06-01 08:12:00,76.5,41.0,29.87,NNE,29,8.0,16.0,28,0.00,,,0.00,meteohub,2013-06-01 15:12:00,
2013-06-01 08:17:00,76.5,41.0,29.87,NNE,30,4.0,16.0,28,0.00,,,0.00,meteohub,2013-06-01 15:17:00,
2013-06-01 08:22:00,76.8,40.3,29.87,NNE,21,13.0,14.0,27,0.00,,,0.00,meteohub,2013-06-01 15:22:00,
2013-06-01 08:27:00,77.2,41.5,29.87,North,0,4.0,14.0,28,0.00,,,0.00,meteohub,2013-06-01 15:27:00,
2013-06-01 08:31:00,77.4,40.8,29.87,NE,38,6.0,13.0,27,0.00,,,0.00,meteohub,2013-06-01 15:31:00,
2013-06-01 08:37:00,77.5,41.9,29.87,NNE,31,2.0,13.0,28,0.00,,,0.00,meteohub,2013-06-01 15:37:00,
2013-06-01 08:42:00,77.9,41.2,29.87,ENE,59,8.0,12.0,27,0.00,,,0.00,meteohub,2013-06-01 15:42:00,
2013-06-01 08:47:00,78.3,42.4,29.87,NW,325,6.0,12.0,28,0.00,,,0.00,meteohub,2013-06-01 15:47:00,
2013-06-01 08:52:00,78.4,41.7,29.87,ENE,57,7.0,11.0,27,0.00,,,0.00,meteohub,2013-06-01 15:52:00,
2013-06-01 08:57:00,78.4,42.6,29.87,NNE,22,6.0,11.0,28,0.00,,,0.00,meteohub,2013-06-01 15:57:00,
2013-06-01 09:02:00,78.6,42.8,29.87,North,9,4.0,11.0,28,0.00,,,0.00,meteohub,2013-06-01 16:02:00,
2013-06-01 09:07:00,78.6,41.9,29.87,NNE,13,11.0,14.0,27,0.00,,,0.00,meteohub,2013-06-01 16:07:00,
2013-06-01 09:12:00,78.8,42.1,29.87,NE,47,3.0,14.0,27,0.00,,,0.00,meteohub,2013-06-01 16:12:00,
2013-06-01 09:17:00,79.0,42.1,29.87,NE,34,5.0,14.0,27,0.00,,,0.00,meteohub,2013-06-01 16:17:00,
2013-06-01 09:22:00,79.3,42.4,29.87,NE,37,7.0,13.0,27,0.00,,,0.00,meteohub,2013-06-01 16:22:00,
2013-06-01 09:27:00,79.9,41.9,29.87,NE,37,5.0,11.0,26,0.00,,,0.00,meteohub,2013-06-01 16:27:00,
2013-06-01 09:32:00,80.2,41.2,29.87,North,5,8.0,12.0,25,0.00,,,0.00,meteohub,2013-06-01 16:32:00,
2013-06-01 09:37:00,80.1,41.0,29.87,NNE,32,12.0,15.0,25,0.00,,,0.00,meteohub,2013-06-01 16:37:00,
2013-06-01 09:42:00,80.1,43.0,29.87,NE,36,4.0,15.0,27,0.00,,,0.00,meteohub,2013-06-01 16:42:00,
2013-06-01 09:47:00,80.4,42.4,29.87,NNE,19,4.0,15.0,26,0.00,,,0.00,meteohub,2013-06-01 16:47:00,
2013-06-01 09:52:00,81.0,43.9,29.87,NNW,335,4.0,14.0,27,0.00,,,0.00,meteohub,2013-06-01 16:52:00,
2013-06-01 09:57:00,81.3,42.1,29.86,NNE,20,9.0,13.0,25,0.00,,,0.00,meteohub,2013-06-01 16:57:00,
2013-06-01 10:02:00,81.7,41.4,29.86,NE,53,6.0,15.0,24,0.00,,,0.00,meteohub,2013-06-01 17:02:00,
2013-06-01 10:07:00,81.7,43.5,29.86,North,355,9.0,15.0,26,0.00,,,0.00,meteohub,2013-06-01 17:07:00,
2013-06-01 10:12:00,82.0,43.7,29.86,NW,324,6.0,15.0,26,0.00,,,0.00,meteohub,2013-06-01 17:12:00,
2013-06-01 10:16:00,82.4,41.9,29.86,NNE,30,5.0,15.0,24,0.00,,,0.00,meteohub,2013-06-01 17:16:00,
2013-06-01 10:22:00,82.8,42.3,29.86,NE,53,5.0,15.0,24,0.00,,,0.00,meteohub,2013-06-01 17:22:00,
2013-06-01 10:27:00,82.9,42.4,29.86,NNE,26,8.0,15.0,24,0.00,,,0.00,meteohub,2013-06-01 17:27:00,
2013-06-01 10:32:00,83.1,42.6,29.86,North,0,3.0,13.0,24,0.00,,,0.00,meteohub,2013-06-01 17:32:00,
2013-06-01 10:37:00,83.5,41.7,29.86,NNE,21,4.0,13.0,23,0.00,,,0.00,meteohub,2013-06-01 17:37:00,
2013-06-01 10:41:00,83.8,43.2,29.86,NNW,330,0.0,13.0,24,0.00,,,0.00,meteohub,2013-06-01 17:41:00,
2013-06-01 10:46:00,84.6,41.5,29.86,NNW,336,3.0,13.0,22,0.00,,,0.00,meteohub,2013-06-01 17:46:00,
2013-06-01 10:51:00,84.7,42.8,29.86,NW,313,3.0,10.0,23,0.00,,,0.00,meteohub,2013-06-01 17:51:00,
2013-06-01 10:57:00,84.9,41.9,29.86,North,5,6.0,10.0,22,0.00,,,0.00,meteohub,2013-06-01 17:57:00,
2013-06-01 11:02:00,85.1,43.2,29.86,North,5,4.0,10.0,23,0.00,,,0.00,meteohub,2013-06-01 18:02:00,
2013-06-01 11:07:00,85.5,42.3,29.86,WNW,283,5.0,10.0,22,0.00,,,0.00,meteohub,2013-06-01 18:07:00,
2013-06-01 11:12:00,85.8,43.7,29.86,WNW,284,6.0,10.0,23,0.00,,,0.00,meteohub,2013-06-01 18:12:00,
2013-06-01 11:17:00,86.4,44.2,29.86,WSW,257,6.0,8.0,23,0.00,,,0.00,meteohub,2013-06-01 18:17:00,
2013-06-01 11:22:00,86.9,43.5,29.86,West,277,5.0,8.0,22,0.00,,,0.00,meteohub,2013-06-01 18:22:00,
2013-06-01 11:27:00,87.1,42.4,29.86,SW,223,3.0,10.0,21,0.00,,,0.00,meteohub,2013-06-01 18:27:00,
2013-06-01 11:32:00,87.3,42.6,29.86,NE,51,7.0,10.0,21,0.00,,,0.00,meteohub,2013-06-01 18:32:00,
2013-06-01 11:37:00,86.7,42.1,29.86,NE,53,0.0,10.0,21,0.00,,,0.00,meteohub,2013-06-01 18:37:00,
2013-06-01 11:42:00,86.7,50.7,29.86,SSW,200,4.0,9.0,29,0.00,,,0.00,meteohub,2013-06-01 18:42:00,
2013-06-01 11:47:00,86.7,50.7,29.86,SW,230,1.0,9.0,29,0.00,,,0.00,meteohub,2013-06-01 18:47:00,
2013-06-01 11:52:00,86.9,48.9,29.86,SW,216,3.0,8.0,27,0.00,,,0.00,meteohub,2013-06-01 18:52:00,
2013-06-01 11:57:00,87.1,49.1,29.85,SW,223,2.0,7.0,27,0.00,,,0.00,meteohub,2013-06-01 18:57:00,
2013-06-01 12:02:00,87.1,49.1,29.85,SSE,153,6.0,7.0,27,0.00,,,0.00,meteohub,2013-06-01 19:02:00,
2013-06-01 12:07:00,87.1,46.9,29.85,SW,218,3.0,8.0,25,0.00,,,0.00,meteohub,2013-06-01 19:07:00,
2013-06-01 12:12:00,87.4,46.2,29.85,West,281,0.0,8.0,24,0.00,,,0.00,meteohub,2013-06-01 19:12:00,
2013-06-01 12:17:00,87.6,47.5,29.85,West,269,6.0,9.0,25,0.00,,,0.00,meteohub,2013-06-01 19:17:00,
2013-06-01 12:22:00,87.6,46.4,29.85,West,265,3.0,9.0,24,0.00,,,0.00,meteohub,2013-06-01 19:22:00,
2013-06-01 12:27:00,87.8,45.3,29.85,WNW,299,3.0,9.0,23,0.00,,,0.00,meteohub,2013-06-01 19:27:00,
2013-06-01 12:32:00,88.2,47.8,29.84,SW,232,4.0,10.0,25,0.00,,,0.00,meteohub,2013-06-01 19:32:00,
2013-06-01 12:37:00,88.0,45.5,29.84,WNW,291,8.0,11.0,23,0.00,,,0.00,meteohub,2013-06-01 19:37:00,
2013-06-01 12:42:00,87.6,46.4,29.84,WSW,240,6.0,11.0,24,0.00,,,0.00,meteohub,2013-06-01 19:42:00,
2013-06-01 12:46:00,87.6,46.4,29.84,West,267,4.0,11.0,24,0.00,,,0.00,meteohub,2013-06-01 19:46:00,
2013-06-01 12:51:00,87.8,48.6,29.84,West,265,4.0,11.0,26,0.00,,,0.00,meteohub,2013-06-01 19:51:00,
2013-06-01 12:56:00,88.3,46.9,29.84,WSW,252,3.0,11.0,24,0.00,,,0.00,meteohub,2013-06-01 19:56:00,
2013-06-01 13:01:00,88.3,45.9,29.84,WNW,290,6.0,11.0,23,0.00,,,0.00,meteohub,2013-06-01 20:01:00,
2013-06-01 13:06:00,88.5,47.1,29.84,NW,306,5.0,10.0,24,0.00,,,0.00,meteohub,2013-06-01 20:06:00,
2013-06-01 13:11:00,88.9,46.2,29.83,WSW,257,7.0,9.0,23,0.00,,,0.00,meteohub,2013-06-01 20:11:00,
2013-06-01 13:16:00,89.2,48.7,29.83,NW,309,4.0,10.0,25,0.00,,,0.00,meteohub,2013-06-01 20:16:00,
2013-06-01 13:21:00,89.6,46.9,29.83,West,271,5.0,11.0,23,0.00,,,0.00,meteohub,2013-06-01 20:21:00,
2013-06-01 13:26:00,89.8,47.1,29.83,West,269,7.0,11.0,23,0.00,,,0.00,meteohub,2013-06-01 20:26:00,
2013-06-01 13:31:00,89.8,47.1,29.83,WSW,242,4.0,11.0,23,0.00,,,0.00,meteohub,2013-06-01 20:31:00,
2013-06-01 13:37:00,90.3,47.5,29.83,West,279,5.0,11.0,23,0.00,,,0.00,meteohub,2013-06-01 20:37:00,
2013-06-01 13:42:00,90.9,46.8,29.83,West,275,4.0,11.0,22,0.00,,,0.00,meteohub,2013-06-01 20:42:00,
2013-06-01 13:47:00,90.5,46.4,29.83,West,272,6.0,11.0,22,0.00,,,0.00,meteohub,2013-06-01 20:47:00,
2013-06-01 13:52:00,89.8,45.9,29.83,WNW,288,3.0,10.0,22,0.00,,,0.00,meteohub,2013-06-01 20:52:00,
2013-06-01 13:57:00,90.1,47.3,29.83,WSW,248,6.0,11.0,23,0.00,,,0.00,meteohub,2013-06-01 20:57:00,
2013-06-01 14:02:00,90.3,46.4,29.82,WSW,239,11.0,12.0,22,0.00,,,0.00,meteohub,2013-06-01 21:02:00,
2013-06-01 14:07:00,90.7,47.8,29.83,WSW,249,5.0,12.0,23,0.00,,,0.00,meteohub,2013-06-01 21:07:00,
2013-06-01 14:12:00,90.9,45.5,29.82,West,273,2.0,12.0,21,0.00,,,0.00,meteohub,2013-06-01 21:12:00,
2013-06-01 14:17:00,91.0,46.9,29.82,WNW,284,8.0,11.0,22,0.00,,,0.00,meteohub,2013-06-01 21:17:00,
2013-06-01 14:22:00,91.2,48.2,29.82,WSW,246,2.0,10.0,23,0.00,,,0.00,meteohub,2013-06-01 21:22:00,
2013-06-01 14:27:00,91.2,45.9,29.82,SSW,194,4.0,10.0,21,0.00,,,0.00,meteohub,2013-06-01 21:27:00,
2013-06-01 14:31:00,91.2,45.9,29.82,WSW,242,6.0,10.0,21,0.00,,,0.00,meteohub,2013-06-01 21:31:00,
2013-06-01 14:36:00,91.2,48.2,29.82,SW,234,2.0,10.0,23,0.00,,,0.00,meteohub,2013-06-01 21:36:00,
2013-06-01 14:41:00,91.4,47.3,29.81,South,175,6.0,11.0,22,0.00,,,0.00,meteohub,2013-06-01 21:41:00,
2013-06-01 14:46:00,91.0,46.9,29.81,SW,232,7.0,11.0,22,0.00,,,0.00,meteohub,2013-06-01 21:46:00,
2013-06-01 14:52:00,90.3,46.4,29.81,West,272,5.0,11.0,22,0.00,,,0.00,meteohub,2013-06-01 21:52:00,
2013-06-01 14:57:00,89.8,45.9,29.81,West,266,3.0,10.0,22,0.00,,,0.00,meteohub,2013-06-01 21:57:00,
2013-06-01 15:02:00,89.4,47.8,29.81,West,261,3.0,11.0,24,0.00,,,0.00,meteohub,2013-06-01 22:02:00,
2013-06-01 15:07:00,89.1,48.7,29.81,SW,227,8.0,12.0,25,0.00,,,0.00,meteohub,2013-06-01 22:07:00,
2013-06-01 15:12:00,89.1,48.7,29.81,West,266,6.0,12.0,25,0.00,,,0.00,meteohub,2013-06-01 22:12:00,
2013-06-01 15:17:00,89.4,48.9,29.81,SW,234,5.0,12.0,25,0.00,,,0.00,meteohub,2013-06-01 22:17:00,
2013-06-01 15:22:00,89.1,49.6,29.81,WNW,298,7.0,11.0,26,0.00,,,0.00,meteohub,2013-06-01 22:22:00,
2013-06-01 15:27:00,88.5,47.1,29.80,SW,218,4.0,11.0,24,0.00,,,0.00,meteohub,2013-06-01 22:27:00,
2013-06-01 15:32:00,88.2,48.9,29.80,SW,222,4.0,11.0,26,0.00,,,0.00,meteohub,2013-06-01 22:32:00,
2013-06-01 15:37:00,87.6,48.6,29.80,West,263,6.0,9.0,26,0.00,,,0.00,meteohub,2013-06-01 22:37:00,
2013-06-01 15:41:00,87.4,49.3,29.80,WSW,247,7.0,10.0,27,0.00,,,0.00,meteohub,2013-06-01 22:41:00,
2013-06-01 15:46:00,88.2,50.0,29.80,WSW,237,4.0,10.0,27,0.00,,,0.00,meteohub,2013-06-01 22:46:00,
2013-06-01 15:52:00,88.2,48.9,29.80,SW,227,5.0,11.0,26,0.00,,,0.00,meteohub,2013-06-01 22:52:00,
2013-06-01 15:57:00,87.6,49.5,29.80,SW,223,4.0,11.0,27,0.00,,,0.00,meteohub,2013-06-01 22:57:00,
2013-06-01 16:02:00,87.4,50.4,29.80,WSW,240,3.0,11.0,28,0.00,,,0.00,meteohub,2013-06-01 23:02:00,
2013-06-01 16:07:00,87.1,49.1,29.80,West,262,6.0,10.0,27,0.00,,,0.00,meteohub,2013-06-01 23:07:00,
2013-06-01 16:12:00,87.1,50.0,29.79,SW,227,6.0,10.0,28,0.00,,,0.00,meteohub,2013-06-01 23:12:00,
2013-06-01 16:17:00,86.7,49.6,29.79,West,268,7.0,10.0,28,0.00,,,0.00,meteohub,2013-06-01 23:17:00,
2013-06-01 16:22:00,86.5,50.5,29.79,West,265,6.0,10.0,29,0.00,,,0.00,meteohub,2013-06-01 23:22:00,
2013-06-01 16:27:00,86.4,51.3,29.79,NW,313,2.0,11.0,30,0.00,,,0.00,meteohub,2013-06-01 23:27:00,
2013-06-01 16:32:00,86.5,51.4,29.79,SW,227,3.0,11.0,30,0.00,,,0.00,meteohub,2013-06-01 23:32:00,
2013-06-01 16:37:00,86.4,51.3,29.79,SW,219,5.0,11.0,30,0.00,,,0.00,meteohub,2013-06-01 23:37:00,
2013-06-01 16:42:00,86.4,52.2,29.79,WSW,244,4.0,11.0,31,0.00,,,0.00,meteohub,2013-06-01 23:42:00,
2013-06-01 16:47:00,86.0,52.7,29.78,West,267,6.0,11.0,32,0.00,,,0.00,meteohub,2013-06-01 23:47:00,
2013-06-01 16:52:00,85.8,52.5,29.78,SW,227,2.0,11.0,32,0.00,,,0.00,meteohub,2013-06-01 23:52:00,
2013-06-01 16:57:00,85.6,51.6,29.78,WSW,249,4.0,10.0,31,0.00,,,0.00,meteohub,2013-06-01 23:57:00,
2013-06-01 17:02:00,85.6,51.6,29.78,SW,219,3.0,9.0,31,0.00,,,0.00,meteohub,2013-06-02 00:02:00,
2013-06-01 17:07:00,86.4,52.2,29.78,WNW,283,8.0,10.0,31,0.00,,,0.00,meteohub,2013-06-02 00:07:00,
2013-06-01 17:12:00,86.9,52.7,29.78,SW,221,4.0,14.0,31,0.00,,,0.00,meteohub,2013-06-02 00:12:00,
2013-06-01 17:17:00,87.1,51.8,29.78,WSW,248,5.0,14.0,30,0.00,,,0.00,meteohub,2013-06-02 00:17:00,
2013-06-01 17:22:00,86.5,51.4,29.77,WSW,248,5.0,14.0,30,0.00,,,0.00,meteohub,2013-06-02 00:22:00,
2013-06-01 17:27:00,86.7,50.7,29.77,West,278,10.0,10.0,29,0.00,,,0.00,meteohub,2013-06-02 00:27:00,
2013-06-01 17:31:00,87.1,50.9,29.77,SW,217,3.0,12.0,29,0.00,,,0.00,meteohub,2013-06-02 00:31:00,
2013-06-01 17:36:00,87.4,50.4,29.77,WSW,246,2.0,14.0,28,0.00,,,0.00,meteohub,2013-06-02 00:36:00,
2013-06-01 17:42:00,87.6,49.5,29.76,SSW,192,8.0,14.0,27,0.00,,,0.00,meteohub,2013-06-02 00:42:00,
2013-06-01 17:46:00,88.2,50.9,29.76,West,266,8.0,14.0,28,0.00,,,0.00,meteohub,2013-06-02 00:46:00,
2013-06-01 17:52:00,88.5,50.4,29.76,SSW,192,7.0,12.0,27,0.00,,,0.00,meteohub,2013-06-02 00:52:00,
2013-06-01 17:57:00,88.5,50.4,29.76,WSW,247,3.0,12.0,27,0.00,,,0.00,meteohub,2013-06-02 00:57:00,
2013-06-01 18:02:00,88.3,49.1,29.76,SW,233,5.0,12.0,26,0.00,,,0.00,meteohub,2013-06-02 01:02:00,
2013-06-01 18:07:00,87.4,49.3,29.76,SW,229,5.0,13.0,27,0.00,,,0.00,meteohub,2013-06-02 01:07:00,
2013-06-01 18:12:00,86.7,49.6,29.76,WNW,289,8.0,13.0,28,0.00,,,0.00,meteohub,2013-06-02 01:12:00,
2013-06-01 18:17:00,86.4,49.5,29.76,WNW,294,8.0,13.0,28,0.00,,,0.00,meteohub,2013-06-02 01:17:00,
2013-06-01 18:22:00,86.2,50.2,29.76,SW,223,2.0,12.0,29,0.00,,,0.00,meteohub,2013-06-02 01:22:00,
2013-06-01 18:27:00,86.4,50.4,29.75,West,261,5.0,12.0,29,0.00,,,0.00,meteohub,2013-06-02 01:27:00,
2013-06-01 18:32:00,86.0,49.1,29.75,WSW,255,4.0,12.0,28,0.00,,,0.00,meteohub,2013-06-02 01:32:00,
2013-06-01 18:37:00,85.5,49.6,29.75,WSW,240,4.0,12.0,29,0.00,,,0.00,meteohub,2013-06-02 01:37:00,
2013-06-01 18:42:00,84.7,49.8,29.75,WSW,256,1.0,12.0,30,0.00,,,0.00,meteohub,2013-06-02 01:42:00,
2013-06-01 18:46:00,84.2,49.5,29.75,WSW,253,3.0,11.0,30,0.00,,,0.00,meteohub,2013-06-02 01:46:00,
2013-06-01 18:52:00,83.8,49.1,29.75,WNW,295,0.0,8.0,30,0.00,,,0.00,meteohub,2013-06-02 01:52:00,
2013-06-01 18:57:00,83.7,49.8,29.75,West,261,2.0,7.0,31,0.00,,,0.00,meteohub,2013-06-02 01:57:00,
2013-06-01 19:02:00,83.5,49.6,29.75,West,261,1.0,6.0,31,0.00,,,0.00,meteohub,2013-06-02 02:02:00,
2013-06-01 19:07:00,82.9,49.3,29.75,West,261,0.0,5.0,31,0.00,,,0.00,meteohub,2013-06-02 02:07:00,
2013-06-01 19:12:00,82.6,48.9,29.75,West,261,2.0,3.0,31,0.00,,,0.00,meteohub,2013-06-02 02:12:00,
2013-06-01 19:17:00,82.0,48.4,29.75,West,261,0.0,3.0,31,0.00,,,0.00,meteohub,2013-06-02 02:17:00,
2013-06-01 19:22:00,81.7,48.9,29.75,West,261,0.0,3.0,32,0.00,,,0.00,meteohub,2013-06-02 02:22:00,
2013-06-01 19:27:00,81.1,48.6,29.75,WSW,245,3.0,3.0,32,0.00,,,0.00,meteohub,2013-06-02 02:27:00,
2013-06-01 19:32:00,80.6,48.9,29.75,WSW,245,0.0,4.0,33,0.00,,,0.00,meteohub,2013-06-02 02:32:00,
2013-06-01 19:37:00,80.2,48.6,29.75,WSW,245,0.0,4.0,33,0.00,,,0.00,meteohub,2013-06-02 02:37:00,
2013-06-01 19:42:00,80.1,48.4,29.75,WSW,245,1.0,4.0,33,0.00,,,0.00,meteohub,2013-06-02 02:42:00,
2013-06-01 19:47:00,79.9,48.2,29.75,WSW,245,0.0,2.0,33,0.00,,,0.00,meteohub,2013-06-02 02:47:00,
2013-06-01 19:52:00,79.7,48.0,29.75,WSW,245,0.0,2.0,33,0.00,,,0.00,meteohub,2013-06-02 02:52:00,
2013-06-01 19:57:00,79.5,47.8,29.74,WSW,245,0.0,2.0,33,0.00,,,0.00,meteohub,2013-06-02 02:57:00,
2013-06-01 20:02:00,79.3,48.6,29.74,WSW,245,0.0,2.0,34,0.00,,,0.00,meteohub,2013-06-02 03:02:00,
2013-06-01 20:07:00,79.3,49.3,29.74,WSW,245,0.0,2.0,35,0.00,,,0.00,meteohub,2013-06-02 03:07:00,
2013-06-01 20:12:00,79.0,48.9,29.74,WSW,245,0.0,2.0,35,0.00,,,0.00,meteohub,2013-06-02 03:12:00,
2013-06-01 20:17:00,78.6,48.7,29.74,WSW,245,0.0,0.0,35,0.00,,,0.00,meteohub,2013-06-02 03:17:00,
2013-06-01 20:22:00,78.3,49.1,29.74,WSW,245,0.0,0.0,36,0.00,,,0.00,meteohub,2013-06-02 03:22:00,
2013-06-01 20:27:00,77.7,50.0,29.74,WSW,245,1.0,2.0,38,0.00,,,0.00,meteohub,2013-06-02 03:27:00,
2013-06-01 20:32:00,76.6,49.8,29.74,WSW,245,0.0,2.0,39,0.00,,,0.00,meteohub,2013-06-02 03:32:00,
2013-06-01 20:37:00,76.3,49.5,29.74,WSW,245,0.0,2.0,39,0.00,,,0.00,meteohub,2013-06-02 03:37:00,
2013-06-01 20:42:00,75.6,49.5,29.75,WSW,245,0.0,2.0,40,0.00,,,0.00,meteohub,2013-06-02 03:42:00,
2013-06-01 20:47:00,75.0,49.6,29.75,WSW,245,0.0,0.0,41,0.00,,,0.00,meteohub,2013-06-02 03:47:00,
2013-06-01 20:52:00,73.8,49.8,29.75,WSW,245,2.0,2.0,43,0.00,,,0.00,meteohub,2013-06-02 03:52:00,
2013-06-01 20:57:00,72.1,49.6,29.74,WSW,245,2.0,3.0,45,0.00,,,0.00,meteohub,2013-06-02 03:57:00,
2013-06-01 21:01:00,71.2,49.5,29.74,WSW,245,4.0,4.0,46,0.00,,,0.00,meteohub,2013-06-02 04:01:00,
2013-06-01 21:06:00,70.3,49.1,29.74,WSW,245,1.0,4.0,47,0.00,,,0.00,meteohub,2013-06-02 04:06:00,
2013-06-01 21:11:00,70.2,49.6,29.74,WSW,245,0.0,4.0,48,0.00,,,0.00,meteohub,2013-06-02 04:11:00,
2013-06-01 21:16:00,69.8,49.3,29.75,WSW,245,0.0,4.0,48,0.00,,,0.00,meteohub,2013-06-02 04:16:00,
2013-06-01 21:21:00,69.4,49.5,29.75,WSW,245,0.0,3.0,49,0.00,,,0.00,meteohub,2013-06-02 04:21:00,
2013-06-01 21:26:00,69.1,49.1,29.75,WSW,245,0.0,1.0,49,0.00,,,0.00,meteohub,2013-06-02 04:26:00,
2013-06-01 21:31:00,68.7,49.3,29.75,WSW,245,0.0,0.0,50,0.00,,,0.00,meteohub,2013-06-02 04:31:00,
2013-06-01 21:36:00,68.5,49.1,29.75,WSW,245,0.0,0.0,50,0.00,,,0.00,meteohub,2013-06-02 04:36:00,
2013-06-01 21:41:00,68.2,48.9,29.75,WSW,245,0.0,0.0,50,0.00,,,0.00,meteohub,2013-06-02 04:41:00,
2013-06-01 21:46:00,67.8,49.1,29.75,WSW,245,0.0,0.0,51,0.00,,,0.00,meteohub,2013-06-02 04:46:00,
2013-06-01 21:51:00,67.5,49.3,29.75,WSW,245,0.0,0.0,52,0.00,,,0.00,meteohub,2013-06-02 04:51:00,
2013-06-01 21:56:00,67.3,49.1,29.75,WSW,245,0.0,0.0,52,0.00,,,0.00,meteohub,2013-06-02 04:56:00,
2013-06-01 22:01:00,66.9,48.7,29.75,WSW,245,0.0,0.0,52,0.00,,,0.00,meteohub,2013-06-02 05:01:00,
2013-06-01 22:06:00,66.6,48.4,29.75,WSW,245,0.0,0.0,52,0.00,,,0.00,meteohub,2013-06-02 05:06:00,
2013-06-01 22:11:00,66.4,49.3,29.75,WSW,245,0.0,1.0,54,0.00,,,0.00,meteohub,2013-06-02 05:11:00,
2013-06-01 22:16:00,65.8,49.3,29.75,WSW,245,0.0,2.0,55,0.00,,,0.00,meteohub,2013-06-02 05:16:00,
2013-06-01 22:21:00,65.7,49.1,29.75,WSW,245,1.0,2.0,55,0.00,,,0.00,meteohub,2013-06-02 05:21:00,
2013-06-01 22:26:00,65.1,48.6,29.75,WSW,245,2.0,3.0,55,0.00,,,0.00,meteohub,2013-06-02 05:26:00,
2013-06-01 22:31:00,64.9,48.4,29.75,WSW,245,1.0,3.0,55,0.00,,,0.00,meteohub,2013-06-02 05:31:00,
2013-06-01 22:36:00,64.8,48.7,29.75,WSW,245,0.0,3.0,56,0.00,,,0.00,meteohub,2013-06-02 05:36:00,
2013-06-01 22:41:00,64.6,48.6,29.75,WSW,245,1.0,2.0,56,0.00,,,0.00,meteohub,2013-06-02 05:41:00,
2013-06-01 22:46:00,64.2,48.2,29.75,WSW,245,0.0,2.0,56,0.00,,,0.00,meteohub,2013-06-02 05:46:00,
2013-06-01 22:51:00,64.0,48.0,29.74,WSW,245,0.0,2.0,56,0.00,,,0.00,meteohub,2013-06-02 05:51:00,
2013-06-01 22:57:00,63.9,48.4,29.74,WSW,245,0.0,2.0,57,0.00,,,0.00,meteohub,2013-06-02 05:57:00,
2013-06-01 23:02:00,63.9,48.4,29.74,WSW,245,1.0,2.0,57,0.00,,,0.00,meteohub,2013-06-02 06:02:00,
2013-06-01 23:07:00,63.7,48.2,29.74,WSW,245,0.0,2.0,57,0.00,,,0.00,meteohub,2013-06-02 06:07:00,
2013-06-01 23:12:00,63.7,48.2,29.74,WSW,245,0.0,2.0,57,0.00,,,0.00,meteohub,2013-06-02 06:12:00,
2013-06-01 23:17:00,63.7,48.2,29.74,WSW,245,1.0,2.0,57,0.00,,,0.00,meteohub,2013-06-02 06:17:00,
2013-06-01 23:22:00,63.5,48.0,29.74,WSW,245,0.0,2.0,57,0.00,,,0.00,meteohub,2013-06-02 06:22:00,
2013-06-01 23:27:00,63.3,47.8,29.74,WSW,245,0.0,2.0,57,0.00,,,0.00,meteohub,2013-06-02 06:27:00,
2013-06-01 23:32:00,63.1,47.7,29.74,WSW,245,0.0,2.0,57,0.00,,,0.00,meteohub,2013-06-02 06:32:00,
2013-06-01 23:37:00,63.1,48.2,29.74,WSW,245,2.0,2.0,58,0.00,,,0.00,meteohub,2013-06-02 06:37:00,
2013-06-01 23:42:00,62.8,47.8,29.74,WSW,245,0.0,3.0,58,0.00,,,0.00,meteohub,2013-06-02 06:42:00,
2013-06-01 23:47:00,62.6,48.0,29.74,WSW,245,2.0,3.0,59,0.00,,,0.00,meteohub,2013-06-02 06:47:00,
2013-06-01 23:52:00,62.4,47.8,29.74,WSW,245,0.0,3.0,59,0.00,,,0.00,meteohub,2013-06-02 06:52:00,
2013-06-01 23:57:00,62.4,47.8,29.74,WSW,245,1.0,3.0,59,0.00,,,0.00,meteohub,2013-06-02 06:57:00,